createdAt,value
2023-02-26T00:01:44.070Z,13.13
2023-02-26T00:04:28.014Z,12.95
2023-02-26T00:07:11.967Z,13.05
2023-02-26T00:09:55.884Z,12.89
2023-02-26T00:12:41.807Z,12.95
2023-02-26T00:15:27.009Z,12.96
2023-02-26T00:18:17.640Z,12.96
2023-02-26T00:21:01.991Z,12.77
2023-02-26T00:23:46.182Z,12.90
2023-02-26T00:26:32.034Z,12.80
2023-02-26T00:29:18.167Z,13.02
2023-02-26T00:32:02.680Z,13.16
2023-02-26T00:34:47.364Z,13.15
2023-02-26T00:37:52.597Z,13.20
2023-02-26T00:40:42.636Z,13.27
2023-02-26T00:43:27.835Z,13.20
2023-02-26T00:46:22.973Z,13.23
2023-02-26T00:49:19.377Z,13.18
2023-02-26T00:52:06.720Z,13.29
2023-02-26T00:54:50.474Z,13.14
2023-02-26T00:57:35.876Z,13.39
2023-02-26T01:00:20.633Z,13.47
2023-02-26T01:03:06.588Z,13.51
2023-02-26T01:05:50.947Z,13.28
2023-02-26T01:08:44.323Z,13.16
2023-02-26T01:11:28.547Z,13.36
2023-02-26T01:14:12.819Z,13.28
2023-02-26T01:17:03.860Z,13.24
2023-02-26T01:19:54.499Z,13.18
2023-02-26T01:22:43.744Z,13.18
2023-02-26T01:25:33.719Z,13.04
2023-02-26T01:28:18.040Z,13.05
2023-02-26T01:31:06.952Z,13.27
2023-02-26T01:33:55.202Z,12.93
2023-02-26T01:36:45.188Z,13.12
2023-02-26T01:39:36.106Z,12.81
2023-02-26T01:42:22.977Z,13.07
2023-02-26T01:45:13.687Z,13.07
2023-02-26T01:48:04.744Z,13.11
2023-02-26T01:50:49.061Z,13.15
2023-02-26T01:53:35.496Z,13.20
2023-02-26T01:56:21.308Z,13.22
2023-02-26T01:59:06.213Z,13.12
2023-02-26T02:01:50.650Z,13.22
2023-02-26T02:04:35.439Z,13.31
2023-02-26T02:07:20.404Z,13.22
2023-02-26T02:10:06.416Z,13.33
2023-02-26T02:12:55.752Z,13.43
2023-02-26T02:16:11.379Z,13.47
2023-02-26T02:19:02.865Z,13.38
2023-02-26T02:21:56.022Z,13.54
2023-02-26T02:24:53.566Z,13.40
2023-02-26T02:27:48.717Z,13.63
2023-02-26T02:30:39.886Z,13.51
2023-02-26T02:33:31.824Z,13.45
2023-02-26T02:36:21.840Z,13.27
2023-02-26T02:39:11.277Z,13.46
2023-02-26T02:41:59.465Z,13.17
2023-02-26T02:44:48.083Z,13.47
2023-02-26T02:47:36.764Z,13.48
2023-02-26T02:50:27.577Z,13.27
2023-02-26T02:53:16.397Z,13.25
2023-02-26T02:56:05.915Z,13.51
2023-02-26T02:58:53.763Z,13.30
2023-02-26T03:01:39.284Z,13.36
2023-02-26T03:04:23.254Z,13.34
2023-02-26T03:07:08.557Z,13.44
2023-02-26T03:09:52.531Z,13.47
2023-02-26T03:12:37.369Z,13.54
2023-02-26T03:15:40.756Z,13.43
2023-02-26T03:18:37.881Z,13.70
2023-02-26T03:21:29.389Z,13.79
2023-02-26T03:24:24.488Z,13.75
2023-02-26T03:27:15.053Z,13.69
2023-02-26T03:30:04.194Z,13.65
2023-02-26T03:33:02.204Z,13.60
2023-02-26T03:35:51.595Z,13.75
2023-02-26T03:38:43.725Z,13.52
2023-02-26T03:41:33.749Z,13.70
2023-02-26T03:44:24.467Z,13.48
2023-02-26T03:47:12.515Z,13.81
2023-02-26T03:50:00.420Z,13.99
2023-02-26T03:52:48.482Z,13.89
2023-02-26T03:55:51.270Z,13.82
2023-02-26T03:59:16.472Z,14.00
2023-02-26T04:02:05.653Z,13.92
2023-02-26T04:04:58.263Z,13.82
2023-02-26T04:07:42.728Z,14.01
2023-02-26T04:10:30.987Z,13.87
2023-02-26T04:13:14.772Z,13.94
2023-02-26T04:16:00.215Z,13.80
2023-02-26T04:18:44.275Z,13.76
2023-02-26T04:21:28.146Z,13.93
2023-02-26T04:24:12.362Z,13.96
2023-02-26T04:26:56.322Z,14.10
2023-02-26T04:29:40.589Z,13.78
2023-02-26T04:32:25.869Z,14.04
2023-02-26T04:35:10.809Z,14.13
2023-02-26T04:37:54.899Z,14.22
2023-02-26T04:40:39.691Z,14.23
2023-02-26T04:43:26.129Z,14.15
2023-02-26T04:46:25.650Z,14.05
2023-02-26T04:49:11.231Z,13.37
2023-02-26T04:51:58.564Z,14.11
2023-02-26T04:54:42.846Z,14.25
2023-02-26T04:57:28.061Z,14.04
2023-02-26T05:00:13.254Z,13.81
2023-02-26T05:02:57.502Z,14.05
2023-02-26T05:05:42.734Z,14.11
2023-02-26T05:08:27.585Z,14.14
2023-02-26T05:11:12.307Z,14.18
2023-02-26T05:13:56.256Z,14.19
2023-02-26T05:16:40.082Z,14.17
2023-02-26T05:19:24.357Z,14.10
2023-02-26T05:22:09.650Z,14.38
2023-02-26T05:24:53.911Z,14.31
2023-02-26T05:27:38.235Z,14.23
2023-02-26T05:30:22.188Z,14.28
2023-02-26T05:33:06.269Z,14.38
2023-02-26T05:35:50.290Z,14.11
2023-02-26T05:38:35.758Z,14.32
2023-02-26T05:41:19.618Z,14.40
2023-02-26T05:44:03.697Z,14.39
2023-02-26T05:46:47.641Z,14.26
2023-02-26T05:49:31.351Z,14.47
2023-02-26T05:52:15.320Z,14.33
2023-02-26T05:55:01.168Z,14.46
2023-02-26T05:57:45.468Z,14.41
2023-02-26T06:00:29.383Z,13.48
2023-02-26T06:03:13.437Z,14.16
2023-02-26T06:05:57.364Z,14.39
2023-02-26T06:08:41.271Z,14.51
2023-02-26T06:11:26.560Z,14.63
2023-02-26T06:14:10.215Z,14.54
2023-02-26T06:16:54.054Z,14.50
2023-02-26T06:19:37.905Z,14.54
2023-02-26T06:22:21.621Z,14.29
2023-02-26T06:25:06.443Z,14.30
2023-02-26T06:27:51.559Z,14.33
2023-02-26T06:30:35.572Z,14.17
2023-02-26T06:33:19.553Z,14.47
2023-02-26T06:36:03.338Z,14.34
2023-02-26T06:38:47.215Z,14.20
2023-02-26T06:41:31.123Z,14.28
2023-02-26T06:44:16.572Z,14.32
2023-02-26T06:47:00.404Z,13.67
2023-02-26T06:49:44.319Z,14.40
2023-02-26T06:52:28.046Z,14.45
2023-02-26T06:55:12.698Z,14.61
2023-02-26T06:57:56.995Z,14.39
2023-02-26T07:00:42.217Z,14.70
2023-02-26T07:03:26.036Z,14.48
2023-02-26T07:06:26.368Z,14.40
2023-02-26T07:09:11.149Z,14.62
2023-02-26T07:11:54.941Z,14.56
2023-02-26T07:14:38.731Z,14.94
2023-02-26T07:17:24.272Z,14.77
2023-02-26T07:20:10.448Z,14.95
2023-02-26T07:22:54.261Z,15.13
2023-02-26T07:25:38.559Z,14.99
2023-02-26T07:28:22.465Z,14.70
2023-02-26T07:31:06.693Z,14.93
2023-02-26T07:33:52.072Z,14.93
2023-02-26T07:36:36.029Z,14.83
2023-02-26T07:39:19.831Z,15.16
2023-02-26T07:42:03.677Z,15.05
2023-02-26T07:44:47.543Z,14.94
2023-02-26T07:47:31.659Z,15.07
2023-02-26T07:50:17.475Z,15.27
2023-02-26T07:53:01.460Z,15.31
2023-02-26T07:55:45.479Z,15.35
2023-02-26T07:58:29.870Z,15.33
2023-02-26T08:01:14.087Z,15.55
2023-02-26T08:03:58.335Z,15.72
2023-02-26T08:06:43.955Z,15.55
2023-02-26T08:09:28.133Z,16.07
2023-02-26T08:12:12.442Z,16.25
2023-02-26T08:14:56.509Z,16.26
2023-02-26T08:17:40.374Z,16.30
2023-02-26T08:20:24.440Z,16.41
2023-02-26T08:23:10.252Z,16.33
2023-02-26T08:26:01.654Z,16.74
2023-02-26T08:28:46.439Z,16.65
2023-02-26T08:31:31.832Z,16.61
2023-02-26T08:34:15.768Z,16.68
2023-02-26T08:36:59.754Z,16.67
2023-02-26T08:39:44.890Z,16.85
2023-02-26T08:42:28.731Z,17.06
2023-02-26T08:45:13.116Z,17.06
2023-02-26T08:47:57.520Z,17.06
2023-02-26T08:50:41.852Z,17.07
2023-02-26T08:53:25.718Z,17.06
2023-02-26T08:56:10.894Z,16.98
2023-02-26T08:58:54.699Z,17.09
2023-02-26T09:01:38.729Z,17.52
2023-02-26T09:04:22.664Z,17.74
2023-02-26T09:07:06.624Z,17.89
2023-02-26T09:09:50.525Z,17.52
2023-02-26T09:12:37.305Z,17.63
2023-02-26T09:15:21.430Z,17.70
2023-02-26T09:18:06.368Z,17.61
2023-02-26T09:20:50.536Z,17.87
2023-02-26T09:23:34.405Z,18.05
2023-02-26T09:26:18.128Z,18.06
2023-02-26T09:29:03.498Z,18.24
2023-02-26T09:31:47.352Z,18.25
2023-02-26T09:34:31.261Z,18.40
2023-02-26T09:37:15.116Z,18.40
2023-02-26T09:39:59.018Z,18.12
2023-02-26T09:42:58.738Z,18.22
2023-02-26T09:45:46.819Z,18.07
2023-02-26T09:48:32.372Z,17.90
2023-02-26T09:51:22.576Z,18.07
2023-02-26T09:54:16.445Z,18.10
2023-02-26T09:57:02.192Z,18.16
2023-02-26T09:59:46.259Z,18.37
2023-02-26T10:02:39.556Z,18.21
2023-02-26T10:05:33.920Z,18.33
2023-02-26T10:08:19.986Z,18.27
2023-02-26T10:11:09.803Z,18.14
2023-02-26T10:13:59.805Z,18.57
2023-02-26T10:16:49.095Z,18.70
2023-02-26T10:19:44.367Z,18.69
2023-02-26T10:22:34.409Z,18.15
2023-02-26T10:25:23.331Z,18.46
2023-02-26T10:28:26.196Z,18.15
2023-02-26T10:31:19.529Z,18.29
2023-02-26T10:34:16.543Z,18.46
2023-02-26T10:37:11.103Z,18.22
2023-02-26T10:39:58.987Z,17.93
2023-02-26T10:42:48.084Z,17.75
2023-02-26T10:45:44.439Z,17.89
2023-02-26T10:48:52.797Z,17.81
2023-02-26T10:51:39.475Z,17.82
2023-02-26T10:54:31.306Z,17.87
2023-02-26T10:57:20.908Z,17.96
2023-02-26T11:00:07.286Z,17.90
2023-02-26T11:02:53.875Z,17.84
2023-02-26T11:05:37.850Z,17.79
2023-02-26T11:08:26.996Z,17.69
2023-02-26T11:11:14.094Z,17.80
2023-02-26T11:13:58.447Z,17.85
2023-02-26T11:16:47.421Z,17.49
2023-02-26T11:19:34.481Z,17.61
2023-02-26T11:22:18.801Z,17.40
2023-02-26T11:25:03.840Z,17.56
2023-02-26T11:27:51.961Z,17.37
2023-02-26T11:30:39.853Z,17.70
2023-02-26T11:33:25.562Z,17.79
2023-02-26T11:36:12.737Z,17.87
2023-02-26T11:38:59.500Z,17.63
2023-02-26T11:41:47.053Z,17.73
2023-02-26T11:44:38.193Z,17.96
2023-02-26T11:47:26.138Z,18.11
2023-02-26T11:50:17.261Z,18.15
2023-02-26T11:53:08.581Z,17.98
2023-02-26T11:55:55.082Z,17.45
2023-02-26T11:58:41.368Z,17.89
2023-02-26T12:01:31.088Z,17.84
2023-02-26T12:04:21.227Z,17.57
2023-02-26T12:07:05.206Z,17.84
2023-02-26T12:09:50.020Z,17.38
2023-02-26T12:12:50.939Z,17.74
2023-02-26T12:15:41.015Z,17.95
2023-02-26T12:18:45.715Z,17.69
2023-02-26T12:21:57.887Z,17.38
2023-02-26T12:25:04.494Z,17.64
2023-02-26T12:28:08.885Z,18.09
2023-02-26T12:31:19.218Z,18.06
2023-02-26T12:34:17.249Z,18.09
2023-02-26T12:37:17.797Z,17.89
2023-02-26T12:40:12.881Z,17.87
2023-02-26T12:43:05.474Z,17.81
2023-02-26T12:45:56.179Z,17.85
2023-02-26T12:49:07.693Z,18.11
2023-02-26T12:52:08.393Z,18.05
2023-02-26T12:55:15.721Z,17.95
2023-02-26T12:58:14.315Z,17.83
2023-02-26T13:01:59.635Z,17.62
2023-02-26T13:05:16.052Z,17.69
2023-02-26T13:08:25.727Z,17.75
2023-02-26T13:11:23.251Z,17.54
2023-02-26T13:14:22.742Z,17.60
2023-02-26T13:17:11.382Z,17.78
2023-02-26T13:19:59.168Z,17.30
2023-02-26T13:22:47.102Z,17.37
2023-02-26T13:25:40.087Z,17.28
2023-02-26T13:28:31.849Z,17.28
2023-02-26T13:31:20.165Z,17.36
2023-02-26T13:34:11.961Z,17.28
2023-02-26T13:36:56.211Z,17.31
2023-02-26T13:39:47.514Z,17.61
2023-02-26T13:42:43.948Z,17.32
2023-02-26T13:45:44.849Z,17.55
2023-02-26T13:48:39.234Z,17.24
2023-02-26T13:51:32.210Z,17.25
2023-02-26T13:54:42.749Z,17.11
2023-02-26T13:57:37.576Z,17.04
2023-02-26T14:00:29.821Z,17.08
2023-02-26T14:03:30.862Z,17.04
2023-02-26T14:06:36.606Z,16.75
2023-02-26T14:09:46.997Z,16.78
2023-02-26T14:12:39.037Z,17.00
2023-02-26T14:15:33.146Z,16.84
2023-02-26T14:18:32.345Z,16.74
2023-02-26T14:21:39.769Z,16.82
2023-02-26T14:24:26.973Z,16.93
2023-02-26T14:27:34.727Z,16.86
2023-02-26T14:30:30.774Z,16.87
2023-02-26T14:33:18.511Z,16.99
2023-02-26T14:36:03.138Z,17.03
2023-02-26T14:38:49.701Z,17.04
2023-02-26T14:41:38.773Z,16.85
2023-02-26T14:44:27.081Z,16.99
2023-02-26T14:47:13.836Z,17.17
2023-02-26T14:50:00.508Z,16.88
2023-02-26T14:53:18.781Z,16.98
2023-02-26T14:56:12.503Z,16.83
2023-02-26T14:59:18.211Z,16.84
2023-02-26T15:02:16.971Z,16.73
2023-02-26T15:05:29.294Z,16.78
2023-02-26T15:08:30.149Z,16.80
2023-02-26T15:11:34.212Z,16.78
2023-02-26T15:14:40.143Z,16.73
2023-02-26T15:17:38.661Z,16.65
2023-02-26T15:20:34.968Z,16.37
2023-02-26T15:23:32.660Z,16.54
2023-02-26T15:26:21.301Z,16.49
2023-02-26T15:29:08.426Z,16.66
2023-02-26T15:31:57.463Z,16.50
2023-02-26T15:34:47.733Z,16.69
2023-02-26T15:37:33.959Z,16.50
2023-02-26T15:40:19.338Z,16.70
2023-02-26T15:43:04.365Z,16.65
2023-02-26T15:45:50.398Z,16.72
2023-02-26T15:48:38.607Z,16.62
2023-02-26T15:51:22.790Z,16.52
2023-02-26T15:54:08.233Z,16.62
2023-02-26T15:56:52.766Z,16.50
2023-02-26T15:59:42.430Z,16.38
2023-02-26T16:02:29.440Z,16.41
2023-02-26T16:05:14.768Z,16.51
2023-02-26T16:07:58.912Z,16.47
2023-02-26T16:10:45.077Z,16.48
2023-02-26T16:13:32.373Z,16.51
2023-02-26T16:16:23.180Z,16.48
2023-02-26T16:19:08.343Z,16.37
2023-02-26T16:21:55.618Z,16.31
2023-02-26T16:24:39.949Z,16.37
2023-02-26T16:27:28.195Z,16.36
2023-02-26T16:30:18.906Z,16.57
2023-02-26T16:33:03.718Z,16.17
2023-02-26T16:35:50.044Z,16.17
2023-02-26T16:38:46.083Z,15.95
2023-02-26T16:41:32.346Z,16.11
2023-02-26T16:44:42.406Z,16.16
2023-02-26T16:47:29.480Z,16.17
2023-02-26T16:50:19.132Z,16.15
2023-02-26T16:53:09.195Z,16.16
2023-02-26T16:55:55.882Z,16.12
2023-02-26T16:58:41.308Z,16.20
2023-02-26T17:01:26.780Z,16.29
2023-02-26T17:04:17.198Z,16.02
2023-02-26T17:07:02.873Z,16.11
2023-02-26T17:09:50.742Z,16.15
2023-02-26T17:12:44.866Z,16.01
2023-02-26T17:15:31.514Z,16.22
2023-02-26T17:18:17.090Z,16.20
2023-02-26T17:21:04.366Z,16.16
2023-02-26T17:23:48.756Z,16.21
2023-02-26T17:26:32.932Z,16.21
2023-02-26T17:29:20.859Z,16.14
2023-02-26T17:32:05.805Z,16.28
2023-02-26T17:34:52.286Z,16.26
2023-02-26T17:37:37.260Z,16.32
2023-02-26T17:40:24.221Z,16.28
2023-02-26T17:43:10.093Z,16.11
2023-02-26T17:45:54.129Z,16.36
2023-02-26T17:48:38.432Z,16.26
2023-02-26T17:51:24.636Z,16.22
2023-02-26T17:54:08.424Z,16.30
2023-02-26T17:56:52.326Z,16.30
2023-02-26T17:59:36.466Z,16.37
2023-02-26T18:02:25.536Z,15.95
2023-02-26T18:05:10.671Z,16.33
2023-02-26T18:07:56.198Z,16.25
2023-02-26T18:10:40.397Z,16.30
2023-02-26T18:13:24.928Z,16.18
2023-02-26T18:16:16.525Z,16.26
2023-02-26T18:19:00.804Z,16.07
2023-02-26T18:21:44.781Z,16.20
2023-02-26T18:24:32.373Z,16.26
2023-02-26T18:27:17.772Z,16.38
2023-02-26T18:30:02.931Z,16.25
2023-02-26T18:32:47.959Z,16.41
2023-02-26T18:35:32.889Z,16.08
2023-02-26T18:38:19.185Z,16.08
2023-02-26T18:41:04.830Z,16.14
2023-02-26T18:43:49.094Z,16.26
2023-02-26T18:46:34.950Z,15.96
2023-02-26T18:49:21.269Z,15.90
2023-02-26T18:52:05.701Z,15.88
2023-02-26T18:54:49.955Z,15.86
2023-02-26T18:57:35.493Z,15.85
2023-02-26T19:00:21.580Z,15.71
2023-02-26T19:03:05.402Z,15.79
2023-02-26T19:05:57.505Z,15.74
2023-02-26T19:08:41.872Z,15.74
2023-02-26T19:11:26.517Z,15.81
2023-02-26T19:14:12.388Z,15.86
2023-02-26T19:16:56.651Z,15.83
2023-02-26T19:19:42.378Z,15.68
2023-02-26T19:22:26.379Z,15.80
2023-02-26T19:25:11.308Z,15.86
2023-02-26T19:27:56.960Z,15.72
2023-02-26T19:30:42.621Z,15.69
2023-02-26T19:33:26.556Z,15.72
2023-02-26T19:36:11.007Z,15.79
2023-02-26T19:38:55.449Z,15.77
2023-02-26T19:41:39.568Z,15.93
2023-02-26T19:44:27.571Z,15.93
2023-02-26T19:47:13.052Z,15.76
2023-02-26T19:49:56.786Z,15.79
2023-02-26T19:52:40.841Z,15.87
2023-02-26T19:55:24.669Z,15.92
2023-02-26T19:58:08.796Z,15.68
2023-02-26T20:00:53.025Z,15.73
2023-02-26T20:03:38.472Z,15.75
2023-02-26T20:06:22.905Z,15.74
2023-02-26T20:09:07.391Z,15.51
2023-02-26T20:11:51.332Z,15.71
2023-02-26T20:14:36.850Z,15.85
2023-02-26T20:17:20.914Z,15.84
2023-02-26T20:20:07.330Z,15.78
2023-02-26T20:22:51.270Z,15.79
2023-02-26T20:25:35.312Z,15.82
2023-02-26T20:28:19.431Z,15.78
2023-02-26T20:31:03.291Z,15.73
2023-02-26T20:33:47.155Z,15.65
2023-02-26T20:36:32.763Z,15.56
2023-02-26T20:39:19.089Z,15.55
2023-02-26T20:42:03.034Z,15.58
2023-02-26T20:44:46.885Z,15.46
2023-02-26T20:47:30.940Z,15.41
2023-02-26T20:50:14.845Z,15.45
2023-02-26T20:53:00.215Z,15.54
2023-02-26T20:55:44.140Z,15.35
2023-02-26T20:58:28.285Z,15.50
2023-02-26T21:01:12.284Z,15.23
2023-02-26T21:03:56.226Z,15.34
2023-02-26T21:06:40.421Z,15.23
2023-02-26T21:09:25.722Z,15.44
2023-02-26T21:12:09.653Z,15.62
2023-02-26T21:14:55.888Z,15.52
2023-02-26T21:17:40.767Z,15.41
2023-02-26T21:20:24.572Z,15.05
2023-02-26T21:23:08.425Z,15.36
2023-02-26T21:25:53.696Z,15.28
2023-02-26T21:28:37.495Z,15.34
2023-02-26T21:31:22.107Z,15.34
2023-02-26T21:34:29.952Z,15.25
2023-02-26T21:37:12.240Z,15.01
2023-02-26T21:39:56.139Z,15.17
2023-02-26T21:42:41.408Z,15.36
2023-02-26T21:45:25.265Z,15.11
2023-02-26T21:48:09.422Z,15.37
2023-02-26T21:50:56.274Z,15.34
2023-02-26T21:53:40.177Z,15.28
2023-02-26T21:56:24.023Z,15.22
2023-02-26T21:59:09.205Z,15.03
2023-02-26T22:01:53.994Z,15.10
2023-02-26T22:04:38.112Z,15.14
2023-02-26T22:07:21.886Z,15.23
2023-02-26T22:10:06.939Z,15.22
2023-02-26T22:12:50.717Z,15.14
2023-02-26T22:15:35.897Z,15.04
2023-02-26T22:18:19.709Z,15.06
2023-02-26T22:21:03.822Z,14.97
2023-02-26T22:23:47.852Z,15.09
2023-02-26T22:26:32.097Z,14.94
2023-02-26T22:29:16.798Z,14.86
2023-02-26T22:32:03.014Z,15.11
2023-02-26T22:34:46.831Z,15.05
2023-02-26T22:37:30.705Z,15.01
2023-02-26T22:40:15.606Z,15.01
2023-02-26T22:42:59.455Z,14.94
2023-02-26T22:45:43.396Z,15.07
2023-02-26T22:48:28.647Z,14.96
2023-02-26T22:51:12.474Z,14.96
2023-02-26T22:53:56.342Z,14.84
2023-02-26T22:56:40.197Z,14.90
2023-02-26T22:59:24.163Z,14.95
2023-02-26T23:02:07.898Z,15.00
2023-02-26T23:04:53.079Z,14.98
2023-02-26T23:07:37.271Z,15.15
2023-02-26T23:10:21.612Z,15.25
2023-02-26T23:13:05.690Z,15.25
2023-02-26T23:15:49.562Z,14.24
2023-02-26T23:18:34.256Z,15.16
2023-02-26T23:21:19.433Z,15.31
2023-02-26T23:24:03.425Z,15.33
2023-02-26T23:26:47.132Z,15.33
2023-02-26T23:29:30.962Z,15.22
2023-02-26T23:32:15.669Z,15.15
2023-02-26T23:34:59.712Z,15.08
2023-02-26T23:37:44.977Z,15.02
2023-02-26T23:40:28.968Z,15.04
2023-02-26T23:43:12.833Z,15.17
2023-02-26T23:45:56.742Z,15.16
2023-02-26T23:48:40.691Z,14.96
2023-02-26T23:51:24.910Z,14.97
2023-02-26T23:54:10.611Z,15.12
2023-02-26T23:56:54.316Z,15.15
2023-02-26T23:59:38.266Z,14.86
